createdAt,value
2018-03-21T00:01:19.990Z,86
2018-03-21T00:03:20.197Z,86
2018-03-21T00:04:20.213Z,86
2018-03-21T00:05:19.779Z,86
2018-03-21T00:07:20.147Z,86
2018-03-21T00:08:19.843Z,86
2018-03-21T00:10:20.166Z,86
2018-03-21T00:11:20.457Z,86
2018-03-21T00:13:20.281Z,86
2018-03-21T00:14:20.223Z,85
2018-03-21T00:15:20.308Z,85
2018-03-21T00:16:20.262Z,85
2018-03-21T00:17:19.967Z,85
2018-03-21T00:18:20.290Z,85
2018-03-21T00:19:19.789Z,86
2018-03-21T00:20:19.814Z,86
2018-03-21T00:21:19.967Z,85
2018-03-21T00:22:20.350Z,85
2018-03-21T00:23:20.236Z,85
2018-03-21T00:24:20.236Z,86
2018-03-21T00:25:20.215Z,86
2018-03-21T00:26:19.964Z,86
2018-03-21T00:27:19.816Z,86
2018-03-21T00:29:20.342Z,85
2018-03-21T00:30:20.244Z,85
2018-03-21T00:32:20.251Z,86
2018-03-21T00:33:20.318Z,86
2018-03-21T00:34:20.280Z,86
2018-03-21T00:35:20.024Z,86
2018-03-21T00:37:20.286Z,86
2018-03-21T00:38:20.055Z,86
2018-03-21T00:40:20.241Z,86
2018-03-21T00:41:19.776Z,86
2018-03-21T00:42:20.070Z,86
2018-03-21T00:43:20.340Z,86
2018-03-21T00:45:20.334Z,86
2018-03-21T00:46:20.335Z,86
2018-03-21T00:47:20.442Z,86
2018-03-21T00:48:20.221Z,86
2018-03-21T00:49:19.835Z,86
2018-03-21T00:50:20.261Z,86
2018-03-21T00:51:19.868Z,86
2018-03-21T00:52:20.292Z,87
2018-03-21T00:53:20.246Z,87
2018-03-21T00:55:20.070Z,87
2018-03-21T00:56:20.382Z,87
2018-03-21T00:57:19.887Z,87
2018-03-21T00:58:20.233Z,87
2018-03-21T00:59:19.805Z,87
2018-03-21T01:00:20.034Z,87
2018-03-21T01:02:20.034Z,87
2018-03-21T01:03:20.268Z,87
2018-03-21T01:05:19.862Z,87
2018-03-21T01:06:19.875Z,87
2018-03-21T01:08:20.132Z,87
2018-03-21T01:09:20.379Z,87
2018-03-21T01:10:20.328Z,88
2018-03-21T01:11:19.926Z,88
2018-03-21T01:12:20.112Z,88
2018-03-21T01:13:20.402Z,88
2018-03-21T01:15:20.358Z,88
2018-03-21T01:16:21.146Z,88
2018-03-21T01:17:20.115Z,88
2018-03-21T01:18:20.338Z,88
2018-03-21T01:19:20.404Z,88
2018-03-21T01:20:19.953Z,88
2018-03-21T01:21:20.477Z,88
2018-03-21T01:22:20.300Z,89
2018-03-21T01:23:20.351Z,89
2018-03-21T01:25:19.933Z,89
2018-03-21T01:26:20.692Z,89
2018-03-21T01:29:20.005Z,89
2018-03-21T01:31:20.062Z,89
2018-03-21T01:32:20.425Z,89
2018-03-21T01:33:20.354Z,89
2018-03-21T01:34:19.920Z,89
2018-03-21T01:35:20.397Z,89
2018-03-21T01:36:20.328Z,89
2018-03-21T01:37:20.337Z,89
2018-03-21T01:38:20.755Z,89
2018-03-21T01:39:20.361Z,89
2018-03-21T01:41:20.293Z,89
2018-03-21T01:42:19.962Z,89
2018-03-21T01:43:20.343Z,89
2018-03-21T01:44:20.442Z,89
2018-03-21T01:45:20.422Z,89
2018-03-21T01:46:20.367Z,89
2018-03-21T01:47:20.498Z,89
2018-03-21T01:48:19.926Z,89
2018-03-21T01:49:19.951Z,89
2018-03-21T01:50:20.165Z,89
2018-03-21T01:51:20.145Z,89
2018-03-21T01:52:19.965Z,89
2018-03-21T01:53:20.331Z,89
2018-03-21T01:54:20.473Z,89
2018-03-21T01:55:20.147Z,89
2018-03-21T01:56:19.963Z,89
2018-03-21T01:57:20.163Z,89
2018-03-21T01:58:20.385Z,89
2018-03-21T01:59:20.428Z,89
2018-03-21T02:00:20.429Z,89
2018-03-21T02:01:20.687Z,89
2018-03-21T02:02:20.206Z,89
2018-03-21T02:03:20.356Z,89
2018-03-21T02:04:20.350Z,89
2018-03-21T02:06:20.411Z,89
2018-03-21T02:07:20.478Z,89
2018-03-21T02:09:20.190Z,89
2018-03-21T02:12:20.410Z,89
2018-03-21T02:13:19.988Z,89
2018-03-21T02:15:20.204Z,89
2018-03-21T02:16:20.198Z,89
2018-03-21T02:17:20.044Z,89
2018-03-21T02:18:20.490Z,90
2018-03-21T02:19:20.451Z,90
2018-03-21T02:21:20.350Z,90
2018-03-21T02:22:20.252Z,90
2018-03-21T02:23:20.032Z,90
2018-03-21T02:24:20.040Z,90
2018-03-21T02:26:19.974Z,90
2018-03-21T02:27:20.256Z,90
2018-03-21T02:28:20.510Z,90
2018-03-21T02:29:20.423Z,90
2018-03-21T02:30:20.234Z,90
2018-03-21T02:31:20.210Z,90
2018-03-21T02:32:20.514Z,90
2018-03-21T02:33:20.567Z,90
2018-03-21T02:34:20.046Z,90
2018-03-21T02:35:19.987Z,90
2018-03-21T02:37:20.037Z,90
2018-03-21T02:38:20.322Z,90
2018-03-21T02:39:20.071Z,90
2018-03-21T02:41:20.473Z,90
2018-03-21T02:42:20.602Z,90
2018-03-21T02:43:20.571Z,90
2018-03-21T02:44:20.490Z,90
2018-03-21T02:45:20.557Z,90
2018-03-21T02:46:20.442Z,90
2018-03-21T02:50:20.608Z,90
2018-03-21T02:51:20.089Z,90
2018-03-21T02:52:20.473Z,90
2018-03-21T02:53:20.562Z,90
2018-03-21T02:54:20.572Z,90
2018-03-21T02:55:20.473Z,90
2018-03-21T02:56:20.536Z,90
2018-03-21T02:57:20.466Z,90
2018-03-21T02:58:20.467Z,90
2018-03-21T02:59:20.443Z,90
2018-03-21T03:00:20.532Z,90
2018-03-21T03:01:20.587Z,90
2018-03-21T03:04:20.487Z,90
2018-03-21T03:05:20.326Z,90
2018-03-21T03:06:20.272Z,90
2018-03-21T03:07:20.088Z,90
2018-03-21T03:08:20.506Z,90
2018-03-21T03:09:20.580Z,90
2018-03-21T03:10:20.106Z,90
2018-03-21T03:11:20.535Z,90
2018-03-21T03:12:20.462Z,90
2018-03-21T03:13:20.532Z,90
2018-03-21T03:14:20.486Z,90
2018-03-21T03:15:20.510Z,90
2018-03-21T03:16:20.482Z,90
2018-03-21T03:18:20.578Z,90
2018-03-21T03:19:20.616Z,90
2018-03-21T03:20:20.517Z,90
2018-03-21T03:22:20.139Z,90
2018-03-21T03:23:20.554Z,90
2018-03-21T03:24:20.043Z,90
2018-03-21T03:25:20.343Z,90
2018-03-21T03:26:20.624Z,90
2018-03-21T03:27:20.546Z,90
2018-03-21T03:28:20.199Z,90
2018-03-21T03:29:20.515Z,90
2018-03-21T03:30:20.192Z,90
2018-03-21T03:31:20.567Z,90
2018-03-21T03:32:20.587Z,90
2018-03-21T03:33:20.584Z,90
2018-03-21T03:34:20.347Z,91
2018-03-21T03:35:20.601Z,91
2018-03-21T03:36:20.373Z,91
2018-03-21T03:37:20.382Z,91
2018-03-21T03:38:20.368Z,91
2018-03-21T03:39:20.601Z,91
2018-03-21T03:40:20.527Z,91
2018-03-21T03:41:20.599Z,91
2018-03-21T03:42:20.410Z,91
2018-03-21T03:43:20.557Z,91
2018-03-21T03:44:20.155Z,91
2018-03-21T03:45:20.552Z,91
2018-03-21T03:46:20.344Z,91
2018-03-21T03:47:20.555Z,91
2018-03-21T03:48:20.173Z,91
2018-03-21T03:50:20.694Z,91
2018-03-21T03:51:20.599Z,91
2018-03-21T03:52:20.544Z,91
2018-03-21T03:54:20.672Z,91
2018-03-21T03:55:20.218Z,91
2018-03-21T03:56:20.351Z,91
2018-03-21T03:57:20.390Z,91
2018-03-21T03:58:20.831Z,91
2018-03-21T03:59:20.685Z,91
2018-03-21T04:00:20.376Z,91
2018-03-21T04:01:20.366Z,91
2018-03-21T04:02:20.696Z,91
2018-03-21T04:05:20.191Z,91
2018-03-21T04:06:20.163Z,91
2018-03-21T04:08:20.716Z,91
2018-03-21T04:09:20.244Z,91
2018-03-21T04:11:20.659Z,91
2018-03-21T04:12:20.469Z,91
2018-03-21T04:13:20.231Z,91
2018-03-21T04:14:20.681Z,91
2018-03-21T04:15:20.707Z,91
2018-03-21T04:16:20.699Z,91
2018-03-21T04:17:20.207Z,91
2018-03-21T04:18:20.461Z,91
2018-03-21T04:19:20.444Z,91
2018-03-21T04:20:20.710Z,91
2018-03-21T04:21:20.418Z,91
2018-03-21T04:22:20.708Z,91
2018-03-21T04:23:20.728Z,91
2018-03-21T04:24:20.641Z,91
2018-03-21T04:26:20.414Z,91
2018-03-21T04:27:20.721Z,91
2018-03-21T04:28:20.647Z,91
2018-03-21T04:29:20.818Z,91
2018-03-21T04:31:20.705Z,91
2018-03-21T04:32:20.709Z,91
2018-03-21T04:34:20.308Z,91
2018-03-21T04:35:20.280Z,91
2018-03-21T04:37:20.654Z,91
2018-03-21T04:38:20.666Z,92
2018-03-21T04:39:20.425Z,92
2018-03-21T04:41:20.454Z,92
2018-03-21T04:42:20.413Z,92
2018-03-21T04:43:20.697Z,92
2018-03-21T04:44:20.392Z,92
2018-03-21T04:46:20.792Z,92
2018-03-21T04:47:20.745Z,92
2018-03-21T04:48:20.807Z,92
2018-03-21T04:49:20.250Z,92
2018-03-21T04:50:20.456Z,92
2018-03-21T04:51:20.336Z,92
2018-03-21T04:52:20.518Z,92
2018-03-21T04:53:20.718Z,92
2018-03-21T04:54:20.376Z,92
2018-03-21T04:56:20.474Z,91
2018-03-21T04:57:20.731Z,91
2018-03-21T04:58:20.720Z,91
2018-03-21T04:59:20.509Z,91
2018-03-21T05:00:20.283Z,91
2018-03-21T05:02:20.264Z,91
2018-03-21T05:03:20.630Z,92
2018-03-21T05:04:20.519Z,92
2018-03-21T05:05:20.270Z,92
2018-03-21T05:06:20.972Z,92
2018-03-21T05:08:20.726Z,92
2018-03-21T05:09:20.280Z,92
2018-03-21T05:10:20.478Z,92
2018-03-21T05:11:20.742Z,92
2018-03-21T05:12:20.745Z,92
2018-03-21T05:13:20.308Z,92
2018-03-21T05:14:20.688Z,92
2018-03-21T05:15:20.351Z,92
2018-03-21T05:16:20.509Z,92
2018-03-21T05:17:20.331Z,92
2018-03-21T05:18:20.754Z,92
2018-03-21T05:19:20.311Z,92
2018-03-21T05:20:20.756Z,92
2018-03-21T05:21:20.802Z,92
2018-03-21T05:22:20.753Z,92
2018-03-21T05:23:20.769Z,92
2018-03-21T05:24:20.320Z,92
2018-03-21T05:25:20.504Z,92
2018-03-21T05:26:20.750Z,92
2018-03-21T05:28:20.824Z,92
2018-03-21T05:29:20.807Z,92
2018-03-21T05:30:20.354Z,92
2018-03-21T05:31:20.547Z,92
2018-03-21T05:32:20.835Z,92
2018-03-21T05:34:20.830Z,92
2018-03-21T05:35:20.712Z,92
2018-03-21T05:36:20.349Z,93
2018-03-21T05:37:20.359Z,93
2018-03-21T05:38:20.587Z,93
2018-03-21T05:40:20.817Z,93
2018-03-21T05:41:20.836Z,93
2018-03-21T05:42:20.776Z,93
2018-03-21T05:43:20.897Z,93
2018-03-21T05:44:20.380Z,93
2018-03-21T05:45:20.905Z,93
2018-03-21T05:46:20.775Z,93
2018-03-21T05:47:20.763Z,93
2018-03-21T05:48:20.585Z,93
2018-03-21T05:49:20.754Z,93
2018-03-21T05:50:20.850Z,93
2018-03-21T05:51:20.626Z,93
2018-03-21T05:52:20.779Z,93
2018-03-21T05:53:20.842Z,93
2018-03-21T05:54:20.416Z,93
2018-03-21T05:55:20.608Z,93
2018-03-21T05:56:20.911Z,93
2018-03-21T05:58:20.814Z,93
2018-03-21T06:00:20.881Z,93
2018-03-21T06:01:20.621Z,93
2018-03-21T06:02:20.581Z,93
2018-03-21T06:05:20.441Z,93
2018-03-21T06:06:20.834Z,93
2018-03-21T06:08:20.989Z,93
2018-03-21T06:09:20.993Z,93
2018-03-21T06:10:20.999Z,93
2018-03-21T06:11:20.828Z,93
2018-03-21T06:12:21.018Z,93
2018-03-21T06:15:20.944Z,93
2018-03-21T06:16:20.922Z,93
2018-03-21T06:17:20.711Z,93
2018-03-21T06:18:20.980Z,93
2018-03-21T06:19:20.942Z,93
2018-03-21T06:20:20.815Z,93
2018-03-21T06:21:20.764Z,93
2018-03-21T06:22:21.433Z,93
2018-03-21T06:23:20.849Z,93
2018-03-21T06:24:20.670Z,93
2018-03-21T06:25:20.871Z,93
2018-03-21T06:26:21.022Z,93
2018-03-21T06:27:20.945Z,93
2018-03-21T06:28:20.765Z,93
2018-03-21T06:29:20.961Z,93
2018-03-21T06:30:20.538Z,93
2018-03-21T06:31:20.716Z,93
2018-03-21T06:32:20.543Z,93
2018-03-21T06:33:22.301Z,93
2018-03-21T06:34:20.524Z,93
2018-03-21T06:35:20.968Z,93
2018-03-21T06:36:20.665Z,93
2018-03-21T06:37:20.748Z,93
2018-03-21T06:38:20.924Z,93
2018-03-21T06:39:20.949Z,93
2018-03-21T06:40:20.951Z,93
2018-03-21T06:41:20.500Z,93
2018-03-21T06:42:20.963Z,93
2018-03-21T06:43:20.714Z,93
2018-03-21T06:44:20.902Z,93
2018-03-21T06:45:20.982Z,93
2018-03-21T06:46:21.665Z,93
2018-03-21T06:47:20.849Z,93
2018-03-21T06:48:20.710Z,93
2018-03-21T06:49:20.997Z,93
2018-03-21T06:50:20.504Z,93
2018-03-21T06:51:20.514Z,93
2018-03-21T06:52:20.890Z,93
2018-03-21T06:54:49.131Z,93
2018-03-21T06:55:20.962Z,93
2018-03-21T06:56:20.890Z,93
2018-03-21T06:57:20.734Z,93
2018-03-21T06:58:21.205Z,93
2018-03-21T06:59:20.753Z,93
2018-03-21T07:01:20.609Z,93
2018-03-21T07:02:20.566Z,93
2018-03-21T07:03:21.049Z,93
2018-03-21T07:04:20.529Z,93
2018-03-21T07:05:20.943Z,93
2018-03-21T07:07:20.758Z,93
2018-03-21T07:08:21.013Z,93
2018-03-21T07:09:20.613Z,93
2018-03-21T07:11:20.754Z,93
2018-03-21T07:12:21.017Z,93
2018-03-21T07:13:21.029Z,93
2018-03-21T07:14:20.738Z,93
2018-03-21T07:15:20.818Z,93
2018-03-21T07:16:21.014Z,94
2018-03-21T07:17:20.973Z,94
2018-03-21T07:18:21.047Z,94
2018-03-21T07:19:20.784Z,94
2018-03-21T07:20:20.989Z,94
2018-03-21T07:21:20.601Z,93
2018-03-21T07:22:20.803Z,93
2018-03-21T07:23:20.985Z,93
2018-03-21T07:24:20.782Z,93
2018-03-21T07:25:21.012Z,93
2018-03-21T07:26:21.081Z,93
2018-03-21T07:27:21.052Z,93
2018-03-21T07:28:21.130Z,93
2018-03-21T07:29:21.019Z,93
2018-03-21T07:30:21.066Z,93
2018-03-21T07:31:20.583Z,92
2018-03-21T07:32:21.019Z,92
2018-03-21T07:33:21.055Z,92
2018-03-21T07:34:20.777Z,92
2018-03-21T07:35:21.067Z,92
2018-03-21T07:36:20.748Z,92
2018-03-21T07:37:20.628Z,92
2018-03-21T07:39:21.083Z,91
2018-03-21T07:41:21.007Z,90
2018-03-21T07:42:20.974Z,90
2018-03-21T07:44:21.165Z,90
2018-03-21T07:45:20.865Z,90
2018-03-21T07:46:21.016Z,90
2018-03-21T07:47:21.055Z,90
2018-03-21T07:49:21.010Z,90
2018-03-21T07:50:21.085Z,90
2018-03-21T07:51:20.855Z,90
2018-03-21T07:53:20.845Z,90
2018-03-21T07:54:20.838Z,89
2018-03-21T07:55:21.046Z,89
2018-03-21T07:56:21.114Z,89
2018-03-21T07:57:24.129Z,89
2018-03-21T07:58:20.961Z,89
2018-03-21T07:59:20.940Z,88
2018-03-21T08:00:20.664Z,88
2018-03-21T08:02:20.697Z,88
2018-03-21T08:03:21.270Z,88
2018-03-21T08:04:21.138Z,87
2018-03-21T08:06:20.840Z,87
2018-03-21T08:07:20.654Z,87
2018-03-21T08:08:20.708Z,87
2018-03-21T08:09:23.583Z,87
2018-03-21T08:10:21.062Z,87
2018-03-21T08:11:23.218Z,86
2018-03-21T08:12:21.245Z,86
2018-03-21T08:13:21.700Z,86
2018-03-21T08:14:21.072Z,86
2018-03-21T08:15:21.072Z,86
2018-03-21T08:16:20.723Z,86
2018-03-21T08:21:22.049Z,85
2018-03-21T08:23:20.917Z,85
2018-03-21T08:24:20.620Z,85
2018-03-21T08:25:21.187Z,85
2018-03-21T08:26:21.056Z,85
2018-03-21T08:27:21.903Z,84
2018-03-21T08:28:21.144Z,84
2018-03-21T08:29:21.128Z,84
2018-03-21T08:30:21.070Z,84
2018-03-21T08:31:20.719Z,84
2018-03-21T08:32:20.897Z,83
2018-03-21T08:33:21.241Z,83
2018-03-21T08:34:20.898Z,82
2018-03-21T08:35:20.771Z,82
2018-03-21T08:36:20.892Z,82
2018-03-21T08:37:21.485Z,81
2018-03-21T08:38:21.110Z,81
2018-03-21T08:39:21.623Z,81
2018-03-21T08:40:20.876Z,81
2018-03-21T08:41:22.141Z,81
2018-03-21T08:43:20.730Z,80
2018-03-21T08:44:20.724Z,80
2018-03-21T08:45:21.275Z,80
2018-03-21T08:46:21.123Z,80
2018-03-21T08:47:21.036Z,80
2018-03-21T08:48:21.042Z,80
2018-03-21T08:49:21.149Z,80
2018-03-21T08:51:21.236Z,79
2018-03-21T08:54:20.960Z,79
2018-03-21T08:55:20.789Z,79
2018-03-21T08:56:20.930Z,79
2018-03-21T08:57:22.242Z,79
2018-03-21T08:58:21.162Z,79
2018-03-21T08:59:21.432Z,79
2018-03-21T09:00:21.189Z,77
2018-03-21T09:01:20.846Z,77
2018-03-21T09:02:22.014Z,77
2018-03-21T09:03:20.778Z,77
2018-03-21T09:04:20.930Z,77
2018-03-21T09:05:21.259Z,77
2018-03-21T09:08:20.971Z,76
2018-03-21T09:09:20.980Z,76
2018-03-21T09:10:21.205Z,76
2018-03-21T09:11:20.991Z,76
2018-03-21T09:13:20.834Z,76
2018-03-21T09:15:20.969Z,76
2018-03-21T09:16:20.794Z,76
2018-03-21T09:17:21.195Z,76
2018-03-21T09:18:20.810Z,75
2018-03-21T09:19:21.273Z,75
2018-03-21T09:20:21.243Z,76
2018-03-21T09:21:20.833Z,76
2018-03-21T09:24:20.970Z,75
2018-03-21T09:25:21.029Z,75
2018-03-21T09:27:21.213Z,75
2018-03-21T09:28:21.208Z,75
2018-03-21T09:30:21.302Z,75
2018-03-21T09:31:20.857Z,75
2018-03-21T09:32:20.863Z,75
2018-03-21T09:33:21.283Z,75
2018-03-21T09:34:21.245Z,75
2018-03-21T09:36:21.029Z,75
2018-03-21T09:37:20.768Z,75
2018-03-21T09:38:21.179Z,75
2018-03-21T09:39:21.015Z,75
2018-03-21T09:40:21.300Z,75
2018-03-21T09:41:21.290Z,75
2018-03-21T09:42:21.040Z,75
2018-03-21T09:43:20.872Z,73
2018-03-21T09:47:21.294Z,74
2018-03-21T09:48:21.035Z,75
2018-03-21T09:49:20.828Z,75
2018-03-21T09:50:21.022Z,75
2018-03-21T09:51:21.181Z,74
2018-03-21T09:52:21.227Z,74
2018-03-21T09:53:21.243Z,73
2018-03-21T09:54:21.222Z,73
2018-03-21T09:55:21.374Z,73
2018-03-21T09:56:21.021Z,72
2018-03-21T09:57:21.041Z,72
2018-03-21T09:58:21.246Z,72
2018-03-21T09:59:20.867Z,72
2018-03-21T10:00:20.811Z,72
2018-03-21T10:01:20.887Z,70
2018-03-21T10:02:21.471Z,70
2018-03-21T10:04:21.257Z,71
2018-03-21T10:05:20.865Z,71
2018-03-21T10:07:21.091Z,70
2018-03-21T10:08:20.889Z,71
2018-03-21T10:09:21.343Z,71
2018-03-21T10:10:21.261Z,71
2018-03-21T10:12:21.238Z,71
2018-03-21T10:13:21.246Z,71
2018-03-21T10:14:21.318Z,70
2018-03-21T10:15:20.868Z,70
2018-03-21T10:16:21.342Z,71
2018-03-21T10:17:21.278Z,71
2018-03-21T10:18:20.904Z,71
2018-03-21T10:19:21.482Z,71
2018-03-21T10:20:21.082Z,71
2018-03-21T10:21:21.299Z,70
2018-03-21T10:22:21.381Z,70
2018-03-21T10:23:21.139Z,70
2018-03-21T10:25:21.431Z,70
2018-03-21T10:26:21.363Z,70
2018-03-21T10:27:21.296Z,70
2018-03-21T10:28:21.294Z,70
2018-03-21T10:29:21.282Z,70
2018-03-21T10:30:21.284Z,70
2018-03-21T10:31:21.312Z,70
2018-03-21T10:32:21.373Z,70
2018-03-21T10:33:21.117Z,70
2018-03-21T10:34:21.396Z,70
2018-03-21T10:35:20.987Z,70
2018-03-21T10:36:20.896Z,67
2018-03-21T10:38:21.293Z,67
2018-03-21T10:39:21.165Z,68
2018-03-21T10:40:21.454Z,68
2018-03-21T10:41:21.345Z,66
2018-03-21T10:43:21.183Z,66
2018-03-21T10:44:20.935Z,64
2018-03-21T10:45:21.159Z,64
2018-03-21T10:46:21.123Z,64
2018-03-21T10:47:21.427Z,65
2018-03-21T10:49:21.807Z,64
2018-03-21T10:50:21.140Z,64
2018-03-21T10:51:21.171Z,64
2018-03-21T10:52:21.145Z,65
2018-03-21T10:53:21.176Z,65
2018-03-21T10:55:21.922Z,64
2018-03-21T10:56:21.367Z,64
2018-03-21T10:57:21.449Z,64
2018-03-21T10:58:21.412Z,64
2018-03-21T10:59:21.359Z,64
2018-03-21T11:00:21.152Z,64
2018-03-21T11:01:21.043Z,64
2018-03-21T11:02:22.040Z,65
2018-03-21T11:04:21.170Z,65
2018-03-21T11:05:20.954Z,65
2018-03-21T11:06:21.339Z,65
2018-03-21T11:10:21.438Z,65
2018-03-21T11:11:21.225Z,65
2018-03-21T11:13:21.145Z,65
2018-03-21T11:14:21.358Z,65
2018-03-21T11:15:21.180Z,65
2018-03-21T11:16:21.206Z,65
2018-03-21T11:17:21.199Z,65
2018-03-21T11:18:21.429Z,65
2018-03-21T11:19:22.195Z,65
2018-03-21T11:20:21.216Z,65
2018-03-21T11:21:21.423Z,65
2018-03-21T11:22:20.971Z,63
2018-03-21T11:23:21.029Z,63
2018-03-21T11:24:21.192Z,63
2018-03-21T11:25:21.467Z,63
2018-03-21T11:26:20.940Z,63
2018-03-21T11:27:20.999Z,64
2018-03-21T11:28:21.454Z,64
2018-03-21T11:29:21.454Z,64
2018-03-21T11:31:21.209Z,63
2018-03-21T11:32:21.220Z,63
2018-03-21T11:34:21.003Z,63
2018-03-21T11:35:21.492Z,62
2018-03-21T11:37:21.997Z,63
2018-03-21T11:40:21.514Z,63
2018-03-21T11:42:21.213Z,63
2018-03-21T11:45:21.609Z,62
2018-03-21T11:46:21.507Z,62
2018-03-21T11:49:21.046Z,62
2018-03-21T11:50:21.392Z,63
2018-03-21T11:51:21.127Z,63
2018-03-21T11:52:21.275Z,63
2018-03-21T11:53:22.260Z,62
2018-03-21T11:54:21.078Z,62
2018-03-21T11:55:21.605Z,61
2018-03-21T11:56:21.584Z,61
2018-03-21T11:58:21.509Z,62
2018-03-21T11:59:21.116Z,62
2018-03-21T12:00:21.453Z,61
2018-03-21T12:01:21.089Z,61
2018-03-21T12:02:21.065Z,61
2018-03-21T12:03:21.677Z,59
2018-03-21T12:04:21.304Z,59
2018-03-21T12:05:21.542Z,60
2018-03-21T12:06:21.419Z,60
2018-03-21T12:07:21.683Z,60
2018-03-21T12:08:21.474Z,59
2018-03-21T12:09:21.539Z,59
2018-03-21T12:10:21.532Z,60
2018-03-21T12:11:21.160Z,60
2018-03-21T12:12:21.215Z,60
2018-03-21T12:13:21.573Z,60
2018-03-21T12:14:21.250Z,60
2018-03-21T12:15:21.591Z,60
2018-03-21T12:16:21.064Z,61
2018-03-21T12:17:21.531Z,61
2018-03-21T12:18:21.573Z,61
2018-03-21T12:19:21.157Z,61
2018-03-21T12:20:21.035Z,61
2018-03-21T12:21:21.488Z,61
2018-03-21T12:23:21.334Z,62
2018-03-21T12:24:21.533Z,62
2018-03-21T12:26:21.496Z,62
2018-03-21T12:27:22.261Z,62
2018-03-21T12:28:21.120Z,61
2018-03-21T12:29:22.115Z,61
2018-03-21T12:30:21.645Z,61
2018-03-21T12:31:21.594Z,61
2018-03-21T12:33:21.152Z,61
2018-03-21T12:34:21.625Z,61
2018-03-21T12:35:21.503Z,61
2018-03-21T12:36:21.284Z,62
2018-03-21T12:37:21.563Z,62
2018-03-21T12:38:21.138Z,61
2018-03-21T12:39:21.583Z,61
2018-03-21T12:40:21.127Z,61
2018-03-21T12:41:21.124Z,63
2018-03-21T12:43:21.141Z,62
2018-03-21T12:44:21.089Z,62
2018-03-21T12:45:21.557Z,62
2018-03-21T12:46:21.085Z,59
2018-03-21T12:47:21.588Z,59
2018-03-21T12:48:21.510Z,59
2018-03-21T12:49:21.533Z,59
2018-03-21T12:50:21.326Z,59
2018-03-21T12:52:21.460Z,59
2018-03-21T12:53:21.569Z,59
2018-03-21T12:54:21.572Z,60
2018-03-21T12:55:21.312Z,60
2018-03-21T12:56:21.634Z,59
2018-03-21T12:58:21.495Z,59
2018-03-21T13:00:21.555Z,59
2018-03-21T13:01:21.627Z,59
2018-03-21T13:02:21.149Z,59
2018-03-21T13:03:21.399Z,59
2018-03-21T13:05:21.542Z,59
2018-03-21T13:06:21.136Z,59
2018-03-21T13:07:21.512Z,59
2018-03-21T13:08:21.561Z,59
2018-03-21T13:09:21.670Z,61
2018-03-21T13:11:21.685Z,61
2018-03-21T13:12:21.347Z,61
2018-03-21T13:13:21.605Z,61
2018-03-21T13:15:21.584Z,60
2018-03-21T13:16:21.116Z,60
2018-03-21T13:18:21.133Z,59
2018-03-21T13:19:21.339Z,59
2018-03-21T13:20:21.137Z,59
2018-03-21T13:21:21.588Z,59
2018-03-21T13:22:21.565Z,62
2018-03-21T13:23:21.359Z,62
2018-03-21T13:26:21.194Z,59
2018-03-21T13:27:21.716Z,59
2018-03-21T13:28:21.639Z,59
2018-03-21T13:30:21.338Z,59
2018-03-21T13:31:21.395Z,59
2018-03-21T13:32:21.595Z,58
2018-03-21T13:33:21.390Z,58
2018-03-21T13:34:21.179Z,58
2018-03-21T13:35:21.125Z,58
2018-03-21T13:36:21.563Z,58
2018-03-21T13:37:21.585Z,58
2018-03-21T13:38:21.619Z,58
2018-03-21T13:39:21.196Z,56
2018-03-21T13:41:21.390Z,56
2018-03-21T13:42:21.574Z,56
2018-03-21T13:43:21.645Z,56
2018-03-21T13:44:21.362Z,59
2018-03-21T13:45:21.194Z,59
2018-03-21T13:46:21.267Z,59
2018-03-21T13:47:21.388Z,58
2018-03-21T13:48:21.401Z,58
2018-03-21T13:49:21.195Z,58
2018-03-21T13:50:21.425Z,60
2018-03-21T13:51:21.434Z,60
2018-03-21T13:52:21.614Z,58
2018-03-21T13:53:21.712Z,58
2018-03-21T13:54:21.607Z,58
2018-03-21T13:55:21.423Z,57
2018-03-21T13:56:21.425Z,57
2018-03-21T13:57:21.593Z,58
2018-03-21T13:58:21.405Z,58
2018-03-21T13:59:21.404Z,58
2018-03-21T14:00:21.241Z,58
2018-03-21T14:01:21.734Z,58
2018-03-21T14:02:21.263Z,57
2018-03-21T14:03:21.447Z,57
2018-03-21T14:04:21.400Z,57
2018-03-21T14:05:21.565Z,57
2018-03-21T14:06:21.769Z,57
2018-03-21T14:07:21.637Z,56
2018-03-21T14:08:21.629Z,56
2018-03-21T14:10:21.598Z,57
2018-03-21T14:11:21.766Z,57
2018-03-21T14:12:21.241Z,55
2018-03-21T14:13:21.698Z,55
2018-03-21T14:14:21.480Z,55
2018-03-21T14:15:30.991Z,54
2018-03-21T14:16:21.737Z,54
2018-03-21T14:17:21.703Z,54
2018-03-21T14:18:21.279Z,55
2018-03-21T14:19:21.703Z,55
2018-03-21T14:20:21.470Z,54
2018-03-21T14:21:21.976Z,54
2018-03-21T14:22:21.271Z,54
2018-03-21T14:23:21.490Z,54
2018-03-21T14:24:21.267Z,54
2018-03-21T14:25:21.654Z,56
2018-03-21T14:26:21.416Z,56
2018-03-21T14:27:21.732Z,56
2018-03-21T14:28:21.677Z,56
2018-03-21T14:29:21.227Z,56
2018-03-21T14:30:21.507Z,56
2018-03-21T14:31:21.273Z,56
2018-03-21T14:32:21.278Z,56
2018-03-21T14:33:21.720Z,58
2018-03-21T14:34:21.677Z,58
2018-03-21T14:35:21.797Z,56
2018-03-21T14:36:21.739Z,56
2018-03-21T14:37:21.285Z,56
2018-03-21T14:38:21.500Z,56
2018-03-21T14:39:21.796Z,56
2018-03-21T14:41:21.762Z,57
2018-03-21T14:42:21.539Z,57
2018-03-21T14:43:22.962Z,54
2018-03-21T14:44:21.843Z,54
2018-03-21T14:45:21.830Z,56
2018-03-21T14:46:21.951Z,56
2018-03-21T14:48:21.728Z,55
2018-03-21T14:50:21.795Z,55
2018-03-21T14:51:21.795Z,56
2018-03-21T14:52:21.820Z,56
2018-03-21T14:53:21.800Z,54
2018-03-21T14:56:21.569Z,55
2018-03-21T14:58:21.525Z,55
2018-03-21T14:59:21.815Z,55
2018-03-21T15:01:21.392Z,55
2018-03-21T15:02:21.581Z,55
2018-03-21T15:03:21.849Z,55
2018-03-21T15:04:21.522Z,55
2018-03-21T15:05:21.734Z,55
2018-03-21T15:06:21.747Z,54
2018-03-21T15:07:21.311Z,54
2018-03-21T15:08:21.322Z,54
2018-03-21T15:09:21.377Z,54
2018-03-21T15:10:21.723Z,54
2018-03-21T15:11:21.722Z,52
2018-03-21T15:12:21.878Z,52
2018-03-21T15:13:21.513Z,52
2018-03-21T15:14:21.827Z,52
2018-03-21T15:15:21.554Z,52
2018-03-21T15:16:21.708Z,52
2018-03-21T15:17:21.807Z,52
2018-03-21T15:18:21.863Z,52
2018-03-21T15:19:21.581Z,51
2018-03-21T15:20:21.864Z,51
2018-03-21T15:21:21.815Z,52
2018-03-21T15:22:21.884Z,52
2018-03-21T15:23:21.903Z,52
2018-03-21T15:24:21.628Z,54
2018-03-21T15:25:21.799Z,54
2018-03-21T15:26:21.656Z,48
2018-03-21T15:27:21.851Z,48
2018-03-21T15:28:21.935Z,48
2018-03-21T15:29:21.988Z,48
2018-03-21T15:30:22.118Z,48
2018-03-21T15:31:21.386Z,49
2018-03-21T15:32:21.892Z,49
2018-03-21T15:33:21.486Z,49
2018-03-21T15:34:21.540Z,49
2018-03-21T15:35:21.931Z,49
2018-03-21T15:36:21.475Z,49
2018-03-21T15:37:23.812Z,49
2018-03-21T15:38:21.917Z,49
2018-03-21T15:39:21.484Z,49
2018-03-21T15:41:21.944Z,47
2018-03-21T15:42:21.380Z,47
2018-03-21T15:43:21.916Z,47
2018-03-21T15:44:21.943Z,47
2018-03-21T15:45:21.495Z,47
2018-03-21T15:46:21.651Z,49
2018-03-21T15:47:21.942Z,49
2018-03-21T15:48:21.426Z,49
2018-03-21T15:49:21.941Z,50
2018-03-21T15:50:21.892Z,50
2018-03-21T15:51:21.644Z,50
2018-03-21T15:52:21.682Z,50
2018-03-21T15:54:21.931Z,50
2018-03-21T15:55:21.880Z,50
2018-03-21T15:57:21.445Z,50
2018-03-21T15:58:21.508Z,50
2018-03-21T15:59:21.858Z,50
2018-03-21T16:00:21.910Z,50
2018-03-21T16:02:21.973Z,51
2018-03-21T16:03:21.708Z,51
2018-03-21T16:04:21.504Z,50
2018-03-21T16:06:21.998Z,50
2018-03-21T16:07:21.902Z,48
2018-03-21T16:08:21.506Z,48
2018-03-21T16:09:21.665Z,48
2018-03-21T16:10:21.696Z,48
2018-03-21T16:12:21.786Z,47
2018-03-21T16:13:21.525Z,47
2018-03-21T16:14:21.450Z,48
2018-03-21T16:15:21.517Z,48
2018-03-21T16:16:21.866Z,48
2018-03-21T16:17:21.756Z,49
2018-03-21T16:18:21.644Z,49
2018-03-21T16:20:22.108Z,48
2018-03-21T16:21:21.808Z,48
2018-03-21T16:22:22.166Z,46
2018-03-21T16:23:21.838Z,46
2018-03-21T16:24:22.234Z,46
2018-03-21T16:25:22.028Z,46
2018-03-21T16:26:22.107Z,46
2018-03-21T16:27:21.696Z,46
2018-03-21T16:28:21.639Z,46
2018-03-21T16:30:21.989Z,46
2018-03-21T16:31:22.116Z,46
2018-03-21T16:32:21.996Z,46
2018-03-21T16:33:22.062Z,46
2018-03-21T16:35:22.058Z,46
2018-03-21T16:36:21.631Z,46
2018-03-21T16:37:22.057Z,45
2018-03-21T16:38:22.121Z,45
2018-03-21T16:39:21.641Z,45
2018-03-21T16:40:21.996Z,46
2018-03-21T16:41:22.462Z,46
2018-03-21T16:42:22.047Z,48
2018-03-21T16:43:21.792Z,48
2018-03-21T16:44:22.071Z,48